Time,TemperatureF,DewpointF,PressureIn,WindDirection,WindDirectionDegrees,WindSpeedMPH,WindSpeedGustMPH,Humidity,HourlyPrecipIn,Conditions,Clouds,dailyrainin,SoftwareType,DateUTC
2013-04-02 00:02:00,37.0,32.0,29.56,West,267,1.0,3.0,82,0.06,,,0.20,,2013-04-02 04:02:00,
2013-04-02 00:12:00,37.0,32.0,29.56,West,267,1.0,3.0,82,0.06,,,0.20,,2013-04-02 04:12:00,
2013-04-02 00:22:00,37.0,32.0,29.55,West,264,0.0,2.0,83,0.08,,,0.22,,2013-04-02 04:22:00,
2013-04-02 00:32:00,37.0,32.0,29.55,NW,313,0.0,3.0,83,0.10,,,0.26,,2013-04-02 04:32:00,
2013-04-02 00:42:00,37.0,32.0,29.55,NW,313,0.0,3.0,83,0.10,,,0.26,,2013-04-02 04:42:00,
2013-04-02 00:53:00,36.0,31.0,29.55,NW,313,1.0,3.0,82,0.12,,,0.30,,2013-04-02 04:53:00,
2013-04-02 01:01:00,34.0,29.0,29.56,NW,318,1.0,3.0,83,0.16,,,0.36,,2013-04-02 05:01:00,
2013-04-02 01:11:00,34.0,29.0,29.56,NW,318,1.0,3.0,83,0.16,,,0.36,,2013-04-02 05:11:00,
2013-04-02 01:22:00,33.0,29.0,29.56,NW,318,0.0,0.0,84,0.14,,,0.36,,2013-04-02 05:22:00,
2013-04-02 01:32:00,33.0,29.0,29.56,NW,318,0.0,0.0,85,0.12,,,0.38,,2013-04-02 05:32:00,
2013-04-02 01:42:00,33.0,29.0,29.56,NW,318,0.0,0.0,85,0.12,,,0.38,,2013-04-02 05:42:00,
2013-04-02 01:52:00,33.0,29.0,29.56,South,176,0.0,2.0,85,0.06,,,0.38,,2013-04-02 05:52:00,
2013-04-02 02:01:00,33.0,29.0,29.56,South,176,0.0,0.0,85,0.02,,,0.38,,2013-04-02 06:01:00,
2013-04-02 02:11:00,33.0,29.0,29.56,South,176,0.0,0.0,85,0.02,,,0.38,,2013-04-02 06:11:00,
2013-04-02 02:21:00,33.0,29.0,29.61,South,176,0.0,0.0,86,0.02,,,0.38,,2013-04-02 06:21:00,
2013-04-02 02:31:00,33.0,29.0,29.61,South,176,0.0,0.0,86,0.02,,,0.38,,2013-04-02 06:31:00,
2013-04-02 02:42:00,33.0,29.0,29.61,South,176,0.0,0.0,86,0.02,,,0.38,,2013-04-02 06:42:00,
2013-04-02 02:52:00,33.0,29.0,29.61,South,176,0.0,0.0,86,0.02,,,0.40,,2013-04-02 06:52:00,
2013-04-02 03:01:00,33.0,29.0,29.61,South,176,0.0,0.0,86,0.02,,,0.40,,2013-04-02 07:01:00,
2013-04-02 03:11:00,33.0,29.0,29.61,South,176,0.0,0.0,86,0.02,,,0.40,,2013-04-02 07:11:00,
2013-04-02 03:21:00,32.0,28.0,29.62,South,176,0.0,0.0,86,0.02,,,0.40,,2013-04-02 07:21:00,
2013-04-02 03:31:00,33.0,30.0,29.61,South,176,0.0,0.0,87,0.02,,,0.40,,2013-04-02 07:31:00,
2013-04-02 03:41:00,33.0,30.0,29.61,South,176,0.0,0.0,87,0.02,,,0.40,,2013-04-02 07:41:00,
2013-04-02 03:52:00,33.0,30.0,29.61,South,176,0.0,0.0,87,0.00,,,0.40,,2013-04-02 07:52:00,
2013-04-02 04:01:00,33.0,30.0,29.61,South,176,0.0,0.0,87,0.00,,,0.40,,2013-04-02 08:01:00,
2013-04-02 04:11:00,33.0,30.0,29.61,South,176,0.0,0.0,87,0.00,,,0.40,,2013-04-02 08:11:00,
2013-04-02 04:21:00,32.0,29.0,29.61,South,176,0.0,0.0,87,0.00,,,0.40,,2013-04-02 08:21:00,
2013-04-02 04:31:00,33.0,30.0,29.60,South,176,0.0,0.0,87,0.00,,,0.40,,2013-04-02 08:31:00,
2013-04-02 04:42:00,33.0,30.0,29.60,South,176,0.0,0.0,87,0.00,,,0.40,,2013-04-02 08:42:00,
2013-04-02 04:52:00,33.0,30.0,29.60,South,176,0.0,0.0,87,0.00,,,0.40,,2013-04-02 08:52:00,
2013-04-02 05:01:00,32.0,29.0,29.61,South,176,0.0,0.0,87,0.02,,,0.42,,2013-04-02 09:01:00,
2013-04-02 05:12:00,32.0,29.0,29.61,South,176,0.0,0.0,87,0.02,,,0.42,,2013-04-02 09:12:00,
2013-04-02 05:22:00,33.0,30.0,29.58,South,176,0.0,0.0,88,0.02,,,0.42,,2013-04-02 09:22:00,
2013-04-02 05:32:00,33.0,30.0,29.58,South,176,0.0,0.0,88,0.02,,,0.42,,2013-04-02 09:32:00,
2013-04-02 05:42:00,33.0,30.0,29.58,South,176,0.0,0.0,88,0.02,,,0.42,,2013-04-02 09:42:00,
2013-04-02 05:52:00,33.0,30.0,29.58,South,176,0.0,0.0,88,0.02,,,0.42,,2013-04-02 09:52:00,
2013-04-02 06:02:00,32.0,29.0,29.59,South,176,0.0,0.0,88,0.00,,,0.42,,2013-04-02 10:02:00,
2013-04-02 06:12:00,32.0,29.0,29.59,South,176,0.0,0.0,88,0.00,,,0.42,,2013-04-02 10:12:00,
2013-04-02 06:22:00,32.0,29.0,29.59,South,176,0.0,0.0,88,0.00,,,0.42,,2013-04-02 10:22:00,
2013-04-02 06:32:00,32.0,29.0,29.60,South,176,0.0,0.0,88,0.00,,,0.42,,2013-04-02 10:32:00,
2013-04-02 06:41:00,32.0,29.0,29.60,South,176,0.0,0.0,88,0.00,,,0.42,,2013-04-02 10:41:00,
2013-04-02 06:52:00,32.0,29.0,29.60,South,176,0.0,0.0,88,0.00,,,0.42,,2013-04-02 10:52:00,
2013-04-02 07:02:00,32.0,29.0,29.61,South,176,0.0,1.0,88,0.00,,,0.42,,2013-04-02 11:02:00,
2013-04-02 07:11:00,32.0,29.0,29.61,South,176,0.0,1.0,88,0.00,,,0.42,,2013-04-02 11:11:00,
2013-04-02 07:22:00,32.0,29.0,29.60,South,176,0.0,1.0,88,0.00,,,0.42,,2013-04-02 11:22:00,
2013-04-02 07:32:00,32.0,29.0,29.60,South,176,0.0,0.0,89,0.00,,,0.42,,2013-04-02 11:32:00,
2013-04-02 07:43:00,32.0,29.0,29.60,South,176,0.0,0.0,89,0.00,,,0.42,,2013-04-02 11:43:00,
2013-04-02 07:52:00,32.0,29.0,29.61,South,176,0.0,0.0,89,0.00,,,0.42,,2013-04-02 11:52:00,
2013-04-02 08:01:00,32.0,29.0,29.61,South,176,0.0,0.0,89,0.00,,,0.42,,2013-04-02 12:01:00,
2013-04-02 08:11:00,32.0,29.0,29.61,South,176,0.0,0.0,89,0.00,,,0.42,,2013-04-02 12:11:00,
2013-04-02 08:22:00,32.0,29.0,29.61,South,176,0.0,0.0,89,0.00,,,0.42,,2013-04-02 12:22:00,
2013-04-02 08:32:00,33.0,30.0,29.62,South,176,0.0,0.0,89,0.00,,,0.42,,2013-04-02 12:32:00,
2013-04-02 08:41:00,33.0,30.0,29.62,South,176,0.0,0.0,89,0.00,,,0.42,,2013-04-02 12:41:00,
2013-04-02 08:52:00,33.0,30.0,29.61,South,176,0.0,0.0,89,0.00,,,0.42,,2013-04-02 12:52:00,
2013-04-02 09:01:00,32.0,29.0,29.62,South,176,0.0,0.0,89,0.00,,,0.42,,2013-04-02 13:01:00,
2013-04-02 09:11:00,33.0,30.0,29.63,South,176,0.0,0.0,89,0.00,,,0.42,,2013-04-02 13:11:00,
2013-04-02 09:21:00,33.0,30.0,29.63,South,176,0.0,0.0,89,0.00,,,0.42,,2013-04-02 13:21:00,
2013-04-02 09:32:00,33.0,30.0,29.63,SW,220,0.0,0.0,89,0.00,,,0.42,,2013-04-02 13:32:00,
2013-04-02 09:42:00,33.0,30.0,29.63,SW,220,0.0,0.0,89,0.00,,,0.42,,2013-04-02 13:42:00,
2013-04-02 09:52:00,33.0,30.0,29.64,WNW,291,1.0,2.0,89,0.00,,,0.42,,2013-04-02 13:52:00,
2013-04-02 10:01:00,33.0,30.0,29.64,WNW,301,1.0,2.0,89,0.00,,,0.42,,2013-04-02 14:01:00,
2013-04-02 10:11:00,33.0,30.0,29.64,WNW,301,1.0,2.0,89,0.00,,,0.42,,2013-04-02 14:11:00,
2013-04-02 10:22:00,33.0,30.0,29.66,WNW,301,0.0,3.0,89,0.00,,,0.42,,2013-04-02 14:22:00,
2013-04-02 10:32:00,33.0,30.0,29.67,WNW,301,0.0,2.0,89,0.00,,,0.42,,2013-04-02 14:32:00,
2013-04-02 10:42:00,33.0,30.0,29.67,WNW,301,0.0,2.0,89,0.00,,,0.42,,2013-04-02 14:42:00,
2013-04-02 10:52:00,33.0,30.0,29.68,WNW,301,0.0,2.0,89,0.00,,,0.42,,2013-04-02 14:52:00,
2013-04-02 11:01:00,34.0,31.0,29.67,WNW,301,1.0,2.0,89,0.00,,,0.42,,2013-04-02 15:01:00,
2013-04-02 11:11:00,34.0,31.0,29.67,WNW,301,1.0,2.0,89,0.00,,,0.42,,2013-04-02 15:11:00,
2013-04-02 11:21:00,34.0,31.0,29.68,NW,305,1.0,3.0,89,0.02,,,0.44,,2013-04-02 15:21:00,
2013-04-02 11:33:00,34.0,31.0,29.68,NW,305,1.0,3.0,89,0.02,,,0.44,,2013-04-02 15:33:00,
2013-04-02 11:42:00,34.0,31.0,29.68,NW,305,1.0,3.0,89,0.02,,,0.44,,2013-04-02 15:42:00,
2013-04-02 11:55:00,34.0,31.0,29.69,West,274,1.0,2.0,89,0.02,,,0.44,,2013-04-02 15:55:00,
2013-04-02 12:02:00,35.0,32.0,29.67,WNW,289,2.0,3.0,89,0.04,,,0.46,,2013-04-02 16:02:00,
2013-04-02 12:13:00,35.0,32.0,29.67,WNW,289,2.0,3.0,89,0.04,,,0.46,,2013-04-02 16:13:00,
2013-04-02 12:23:00,36.0,33.0,29.70,NW,322,3.0,7.0,88,0.02,,,0.46,,2013-04-02 16:23:00,
2013-04-02 12:33:00,38.0,35.0,29.69,NW,318,1.0,3.0,88,0.04,,,0.48,,2013-04-02 16:33:00,
2013-04-02 12:42:00,38.0,35.0,29.69,NW,318,1.0,3.0,88,0.04,,,0.48,,2013-04-02 16:42:00,
2013-04-02 12:53:00,39.0,35.0,29.68,NNW,328,2.0,5.0,86,0.05,,,0.49,,2013-04-02 16:53:00,
2013-04-02 13:02:00,39.0,35.0,29.69,North,4,2.0,5.0,84,0.05,,,0.51,,2013-04-02 17:02:00,
2013-04-02 13:11:00,39.0,35.0,29.69,North,4,2.0,5.0,84,0.05,,,0.51,,2013-04-02 17:11:00,
2013-04-02 13:22:00,39.0,35.0,29.70,North,0,2.0,3.0,84,0.08,,,0.54,,2013-04-02 17:22:00,
2013-04-02 13:33:00,40.0,35.0,29.70,North,0,1.0,3.0,81,0.08,,,0.56,,2013-04-02 17:33:00,
2013-04-02 13:42:00,40.0,35.0,29.70,North,0,1.0,3.0,81,0.08,,,0.56,,2013-04-02 17:42:00,
2013-04-02 13:54:00,41.0,35.0,29.69,North,0,1.0,3.0,79,0.10,,,0.59,,2013-04-02 17:54:00,
2013-04-02 14:01:00,42.0,35.0,29.69,NE,56,2.0,3.0,75,0.11,,,0.62,,2013-04-02 18:01:00,
2013-04-02 14:12:00,42.0,35.0,29.69,NE,56,2.0,3.0,75,0.11,,,0.62,,2013-04-02 18:12:00,
2013-04-02 14:22:00,43.0,34.0,29.69,North,0,2.0,7.0,69,0.11,,,0.65,,2013-04-02 18:22:00,
2013-04-02 14:32:00,43.0,32.0,29.69,NW,310,6.0,12.0,65,0.14,,,0.70,,2013-04-02 18:32:00,
2013-04-02 14:42:00,43.0,32.0,29.69,NW,310,6.0,12.0,65,0.14,,,0.70,,2013-04-02 18:42:00,
2013-04-02 14:54:00,43.0,31.0,29.70,NW,318,5.0,10.0,63,0.17,,,0.76,,2013-04-02 18:54:00,
2013-04-02 15:12:00,44.0,31.0,29.68,NE,43,5.0,8.0,60,0.24,,,0.86,,2013-04-02 19:12:00,
2013-04-02 15:22:00,45.0,32.0,29.68,ESE,110,4.0,12.0,59,0.28,,,0.93,,2013-04-02 19:22:00,
2013-04-02 15:31:00,44.0,29.0,29.68,NE,36,7.0,12.0,55,0.35,,,1.01,,2013-04-02 19:31:00,
2013-04-02 15:42:00,44.0,29.0,29.68,NE,36,7.0,12.0,55,0.35,,,1.01,,2013-04-02 19:42:00,
2013-04-02 15:54:00,44.0,28.0,29.68,ENE,72,10.0,18.0,53,0.39,,,1.08,,2013-04-02 19:54:00,
2013-04-02 16:02:00,45.0,28.0,29.67,East,83,3.0,12.0,52,0.37,,,1.13,,2013-04-02 20:02:00,
2013-04-02 16:11:00,45.0,28.0,29.67,East,83,3.0,12.0,52,0.37,,,1.13,,2013-04-02 20:11:00,
2013-04-02 16:21:00,46.0,28.0,29.66,East,83,4.0,13.0,50,0.40,,,1.21,,2013-04-02 20:21:00,
2013-04-02 16:32:00,46.0,27.0,29.66,ESE,103,9.0,14.0,48,0.32,,,1.25,,2013-04-02 20:32:00,
2013-04-02 16:42:00,46.0,27.0,29.66,ESE,103,9.0,14.0,48,0.32,,,1.25,,2013-04-02 20:42:00,
2013-04-02 16:53:00,46.0,27.0,29.66,ESE,103,9.0,14.0,48,0.32,,,1.25,,2013-04-02 20:53:00,
2013-04-02 17:02:00,47.0,27.0,29.65,NNE,14,7.0,12.0,45,0.14,,,1.25,,2013-04-02 21:02:00,
2013-04-02 17:11:00,47.0,27.0,29.65,NNE,14,7.0,12.0,45,0.14,,,1.25,,2013-04-02 21:11:00,
2013-04-02 17:22:00,48.0,28.0,29.64,NNW,333,6.0,17.0,45,0.08,,,1.25,,2013-04-02 21:22:00,
2013-04-02 17:32:00,48.0,26.0,29.64,NNW,335,6.0,12.0,42,0.00,,,1.25,,2013-04-02 21:32:00,
2013-04-02 17:42:00,48.0,26.0,29.64,NNW,335,6.0,12.0,42,0.00,,,1.25,,2013-04-02 21:42:00,
2013-04-02 17:53:00,49.0,26.0,29.64,NNE,25,3.0,6.0,41,0.00,,,1.25,,2013-04-02 21:53:00,
2013-04-02 18:03:00,50.0,28.0,29.62,SSE,154,3.0,8.0,42,0.00,,,1.25,,2013-04-02 22:03:00,
2013-04-02 18:12:00,50.0,28.0,29.62,SSE,154,3.0,8.0,42,0.00,,,1.25,,2013-04-02 22:12:00,
2013-04-02 18:22:00,48.0,28.0,29.62,SSE,156,7.0,12.0,45,0.00,,,1.25,,2013-04-02 22:22:00,
2013-04-02 18:33:00,48.0,27.0,29.62,South,172,8.0,12.0,44,0.00,,,1.25,,2013-04-02 22:33:00,
2013-04-02 18:42:00,48.0,27.0,29.62,South,172,8.0,12.0,44,0.00,,,1.25,,2013-04-02 22:42:00,
2013-04-02 18:52:00,49.0,27.0,29.62,East,99,5.0,8.0,43,0.00,,,1.25,,2013-04-02 22:52:00,
2013-04-02 19:02:00,49.0,28.0,29.62,SW,227,3.0,12.0,44,0.00,,,1.25,,2013-04-02 23:02:00,
2013-04-02 19:12:00,50.0,28.0,29.61,SW,236,5.0,8.0,42,0.00,,,1.25,,2013-04-02 23:12:00,
2013-04-02 19:22:00,50.0,28.0,29.61,SW,236,5.0,8.0,42,0.00,,,1.25,,2013-04-02 23:22:00,
2013-04-02 19:32:00,51.0,29.0,29.61,WSW,242,5.0,8.0,42,0.00,,,1.25,,2013-04-02 23:32:00,
2013-04-02 19:42:00,51.0,29.0,29.61,WSW,242,5.0,8.0,42,0.00,,,1.25,,2013-04-02 23:42:00,
2013-04-02 19:53:00,51.0,27.0,29.62,SSE,154,0.0,5.0,39,0.00,,,1.25,,2013-04-02 23:53:00,
2013-04-02 20:01:00,52.0,28.0,29.60,WSW,241,2.0,6.0,39,0.00,,,1.25,,2013-04-03 00:01:00,
2013-04-02 20:12:00,52.0,28.0,29.60,WSW,241,2.0,6.0,39,0.00,,,1.25,,2013-04-03 00:12:00,
2013-04-02 20:22:00,52.0,28.0,29.60,West,268,3.0,7.0,40,0.00,,,1.25,,2013-04-03 00:22:00,
2013-04-02 20:32:00,52.0,30.0,29.60,SW,226,2.0,6.0,42,0.00,,,1.25,,2013-04-03 00:32:00,
2013-04-02 20:43:00,52.0,30.0,29.60,SW,226,2.0,6.0,42,0.00,,,1.25,,2013-04-03 00:43:00,
2013-04-02 20:54:00,50.0,33.0,29.61,SW,232,7.0,14.0,52,0.00,,,1.25,,2013-04-03 00:54:00,
2013-04-02 21:02:00,50.0,33.0,29.62,WSW,244,6.0,10.0,52,0.00,,,1.25,,2013-04-03 01:02:00,
2013-04-02 21:11:00,50.0,33.0,29.62,WSW,244,6.0,10.0,52,0.00,,,1.25,,2013-04-03 01:11:00,
2013-04-02 21:21:00,48.0,32.0,29.62,WSW,237,3.0,8.0,54,0.00,,,1.25,,2013-04-03 01:21:00,
2013-04-02 21:32:00,47.0,33.0,29.63,WSW,250,3.0,7.0,57,0.00,,,1.25,,2013-04-03 01:32:00,
2013-04-02 21:42:00,47.0,33.0,29.63,WSW,250,3.0,7.0,57,0.00,,,1.25,,2013-04-03 01:42:00,
2013-04-02 21:53:00,47.0,33.0,29.64,WSW,244,3.0,10.0,59,0.00,,,1.25,,2013-04-03 01:53:00,
2013-04-02 22:02:00,46.0,33.0,29.65,WSW,250,1.0,3.0,60,0.00,,,1.25,,2013-04-03 02:02:00,
2013-04-02 22:11:00,46.0,33.0,29.65,WSW,250,1.0,3.0,60,0.00,,,1.25,,2013-04-03 02:11:00,
2013-04-02 22:22:00,45.0,33.0,29.65,NNW,330,1.0,2.0,63,0.00,,,1.25,,2013-04-03 02:22:00,
2013-04-02 22:32:00,44.0,33.0,29.66,NNW,330,0.0,2.0,65,0.00,,,1.25,,2013-04-03 02:32:00,
2013-04-02 22:42:00,44.0,33.0,29.66,NNW,330,0.0,2.0,65,0.00,,,1.25,,2013-04-03 02:42:00,
2013-04-02 22:53:00,42.0,32.0,29.68,NW,315,1.0,2.0,67,0.00,,,1.25,,2013-04-03 02:53:00,
2013-04-02 23:02:00,41.0,31.0,29.70,NW,315,0.0,0.0,68,0.00,,,1.23,,2013-04-03 03:02:00,
2013-04-02 23:12:00,41.0,31.0,29.70,NW,315,0.0,0.0,68,0.00,,,1.23,,2013-04-03 03:12:00,
2013-04-02 23:22:00,40.0,31.0,29.69,NW,315,0.0,0.0,71,0.00,,,1.23,,2013-04-03 03:22:00,
2013-04-02 23:33:00,40.0,32.0,29.70,NW,315,0.0,1.0,72,0.00,,,1.21,,2013-04-03 03:33:00,
2013-04-02 23:43:00,40.0,32.0,29.70,NW,315,0.0,1.0,72,0.00,,,1.21,,2013-04-03 03:43:00,
2013-04-02 23:53:00,39.0,31.0,29.72,NW,315,1.0,2.0,74,0.00,,,1.19,,2013-04-03 03:53:00,